Time;durP1;ratioP1;P1;durP2;ratioP2;P2;SDS_P1;SDS_P2;PMS_P1;PMS_P2;Temp;Humidity;BMP_temperature;BMP_pressure;BME280_temperature;BME280_humidity;BME280_pressure;Samples;Min_cycle;Max_cycle;Signal;HPM_P1;HPM_P2
2023/04/22 00:01:50;;;;;;;2.97;1.30;;;15.50;76.50;;;;;;5061926;28;20187;-76
2023/04/22 00:04:20;;;;;;;1.47;0.90;;;15.50;76.40;;;;;;5060520;28;20201;-76
2023/04/22 00:06:49;;;;;;;3.00;0.80;;;15.50;76.40;;;;;;5067853;28;20240;-76
2023/04/22 00:09:17;;;;;;;1.50;1.00;;;15.50;76.40;;;;;;5070350;28;20309;-76
2023/04/22 00:11:46;;;;;;;4.87;1.10;;;15.50;76.40;;;;;;5067067;28;20190;-76
2023/04/22 00:14:14;;;;;;;1.33;0.67;;;15.50;76.30;;;;;;5071074;28;20609;-76
2023/04/22 00:16:42;;;;;;;1.87;1.20;;;15.50;76.30;;;;;;5072788;28;20245;-75
2023/04/22 00:19:11;;;;;;;0.77;0.70;;;15.50;76.30;;;;;;5085268;28;20285;-76
2023/04/22 00:21:41;;;;;;;2.23;1.40;;;15.50;76.20;;;;;;5090189;28;20197;-76
2023/04/22 00:24:09;;;;;;;7.33;1.20;;;15.50;76.10;;;;;;5089697;28;20262;-76
2023/04/22 00:26:37;;;;;;;2.03;1.10;;;15.50;76.90;;;;;;5084239;28;20197;-76
2023/04/22 00:29:06;;;;;;;5.50;0.87;;;15.40;76.10;;;;;;5084560;28;20635;-76
2023/04/22 00:31:34;;;;;;;4.00;1.00;;;15.40;76.30;;;;;;5084052;28;20251;-76
2023/04/22 00:34:03;;;;;;;1.43;0.80;;;15.40;76.40;;;;;;5088478;28;20193;-76
2023/04/22 00:36:31;;;;;;;2.37;1.20;;;15.40;76.40;;;;;;5086932;28;20197;-76
2023/04/22 00:39:01;;;;;;;3.03;0.80;;;15.30;76.40;;;;;;5078408;28;20193;-76
2023/04/22 00:41:30;;;;;;;2.80;1.00;;;15.30;76.30;;;;;;5082551;28;20239;-76
2023/04/22 00:44:00;;;;;;;1.03;0.73;;;15.30;76.40;;;;;;5086623;28;20239;-76
2023/04/22 00:46:29;;;;;;;1.37;1.00;;;15.30;76.30;;;;;;5090799;28;20186;-76
2023/04/22 00:48:58;;;;;;;2.07;1.13;;;15.20;76.20;;;;;;5085254;28;20218;-76
2023/04/22 00:51:26;;;;;;;5.73;1.40;;;15.20;76.20;;;;;;5084845;28;20194;-76
2023/04/22 00:53:55;;;;;;;3.03;1.30;;;15.20;76.30;;;;;;5086621;28;20182;-76
2023/04/22 00:56:26;;;;;;;2.03;0.93;;;15.20;76.30;;;;;;5089955;28;20220;-76
2023/04/22 00:58:55;;;;;;;3.37;1.57;;;15.10;76.20;;;;;;5090382;28;20646;-76
2023/04/22 01:01:24;;;;;;;1.03;0.70;;;15.10;76.30;;;;;;5089368;28;20206;-76
2023/04/22 01:03:53;;;;;;;1.50;0.70;;;15.10;76.30;;;;;;5087018;28;20198;-76
2023/04/22 01:06:24;;;;;;;4.73;1.03;;;15.00;76.30;;;;;;5084930;28;20198;-76
2023/04/22 01:08:52;;;;;;;1.60;1.13;;;15.00;76.40;;;;;;5087317;28;20190;-76
2023/04/22 01:11:22;;;;;;;1.33;0.80;;;15.00;76.60;;;;;;5094704;28;20194;-75
2023/04/22 01:13:52;;;;;;;3.57;1.37;;;14.90;76.60;;;;;;5090652;28;20213;-75
2023/04/22 01:16:21;;;;;;;7.17;3.10;;;14.90;76.70;;;;;;5090500;28;20270;-76
2023/04/22 01:18:49;;;;;;;1.30;1.07;;;14.80;76.80;;;;;;5088802;28;20247;-76
2023/04/22 01:21:18;;;;;;;3.83;1.47;;;14.80;76.90;;;;;;5080106;28;20204;-76
2023/04/22 01:23:48;;;;;;;3.10;1.03;;;14.80;77.10;;;;;;5089244;28;20221;-76
2023/04/22 01:26:17;;;;;;;0.80;0.70;;;14.70;77.00;;;;;;5085942;28;20217;-75
2023/04/22 01:28:45;;;;;;;5.40;0.87;;;14.70;77.10;;;;;;5092567;28;20189;-76
2023/04/22 01:31:14;;;;;;;2.13;1.17;;;14.70;77.10;;;;;;5084177;28;20243;-76
2023/04/22 01:33:43;;;;;;;3.17;1.67;;;14.70;77.10;;;;;;5087724;28;20194;-76
2023/04/22 01:36:12;;;;;;;1.47;1.00;;;14.60;77.20;;;;;;5087060;28;20194;-76
2023/04/22 01:38:40;;;;;;;2.03;1.17;;;14.50;77.40;;;;;;5089414;28;20207;-76
2023/04/22 01:41:10;;;;;;;1.63;0.87;;;14.50;77.40;;;;;;5080237;28;20191;-77
2023/04/22 01:43:39;;;;;;;1.53;0.90;;;14.50;77.50;;;;;;5087516;28;20197;-76
2023/04/22 01:46:08;;;;;;;1.63;1.10;;;14.40;77.70;;;;;;5084185;28;20704;-77
2023/04/22 01:48:37;;;;;;;2.73;1.07;;;14.30;77.60;;;;;;5091574;28;20750;-76
2023/04/22 01:51:05;;;;;;;1.30;1.10;;;14.30;77.70;;;;;;5089985;28;20698;-76
2023/04/22 01:53:34;;;;;;;4.80;2.10;;;14.30;77.70;;;;;;5091570;28;20190;-76
2023/04/22 01:56:02;;;;;;;1.70;1.30;;;14.30;77.70;;;;;;5089379;28;20243;-76
2023/04/22 01:58:34;;;;;;;4.43;1.00;;;14.20;77.90;;;;;;5090089;28;20195;-76
2023/04/22 02:01:02;;;;;;;0.73;0.73;;;14.20;77.90;;;;;;5089237;28;20198;-76
2023/04/22 02:03:31;;;;;;;2.53;1.77;;;14.10;78.00;;;;;;5092405;28;20218;-76
2023/04/22 02:05:59;;;;;;;9.93;2.10;;;14.10;78.00;;;;;;5094357;28;20222;-76
2023/04/22 02:08:28;;;;;;;3.37;1.47;;;14.10;78.30;;;;;;5089102;28;20197;-76
2023/04/22 02:10:57;;;;;;;2.00;1.33;;;14.00;78.30;;;;;;5087080;28;20213;-76
2023/04/22 02:13:25;;;;;;;1.57;1.10;;;14.00;78.50;;;;;;5091069;28;20190;-76
2023/04/22 02:15:55;;;;;;;1.77;1.00;;;13.90;78.50;;;;;;5087682;28;20235;-76
2023/04/22 02:18:23;;;;;;;2.63;1.60;;;13.90;78.70;;;;;;5080346;28;20217;-76
2023/04/22 02:20:51;;;;;;;3.03;1.60;;;13.90;78.80;;;;;;5091420;28;20190;-76
2023/04/22 02:23:20;;;;;;;2.87;1.47;;;13.90;78.90;;;;;;5088630;28;20190;-76
2023/04/22 02:25:50;;;;;;;1.93;1.27;;;13.80;78.90;;;;;;5090097;28;20193;-75
2023/04/22 02:28:19;;;;;;;2.27;1.00;;;13.80;78.90;;;;;;5092518;28;20186;-75
2023/04/22 02:30:47;;;;;;;2.53;1.40;;;13.80;79.10;;;;;;5089745;28;20713;-76
2023/04/22 02:33:17;;;;;;;5.10;1.57;;;13.80;79.20;;;;;;5087762;28;20605;-75
2023/04/22 02:35:46;;;;;;;1.30;1.10;;;13.70;79.30;;;;;;5090598;28;20662;-75
2023/04/22 02:38:14;;;;;;;1.90;1.73;;;13.70;79.50;;;;;;5080116;28;20672;-76
2023/04/22 02:40:42;;;;;;;1.13;1.00;;;13.70;79.50;;;;;;5088102;28;20599;-76
2023/04/22 02:43:11;;;;;;;3.07;1.90;;;13.60;79.60;;;;;;5088362;28;20191;-77
2023/04/22 02:45:40;;;;;;;1.37;1.10;;;13.70;79.70;;;;;;5091371;28;20304;-76
2023/04/22 02:48:08;;;;;;;2.67;1.73;;;13.60;79.70;;;;;;5087633;28;20193;-76
2023/04/22 02:50:38;;;;;;;4.03;1.73;;;13.60;79.80;;;;;;5091255;28;20717;-77
2023/04/22 02:53:07;;;;;;;3.53;1.43;;;13.60;80.10;;;;;;5087186;28;20190;-75
2023/04/22 02:55:36;;;;;;;3.47;1.40;;;13.60;80.50;;;;;;5083739;28;20541;-76
2023/04/22 02:58:05;;;;;;;1.60;1.50;;;13.60;80.80;;;;;;5087553;28;20194;-75
2023/04/22 03:00:33;;;;;;;7.23;1.70;;;13.60;80.90;;;;;;5090062;28;20200;-75
2023/04/22 03:03:02;;;;;;;4.20;2.03;;;13.50;81.10;;;;;;5093113;28;20627;-75
2023/04/22 03:05:30;;;;;;;3.17;2.07;;;13.50;81.30;;;;;;5092785;28;20194;-75
2023/04/22 03:08:00;;;;;;;2.67;1.60;;;13.50;82.00;;;;;;5085170;28;20192;-76
2023/04/22 03:10:29;;;;;;;1.97;1.20;;;13.50;81.90;;;;;;5092528;28;20278;-75
2023/04/22 03:12:57;;;;;;;4.27;1.43;;;13.50;82.50;;;;;;5092110;28;20186;-76
2023/04/22 03:15:25;;;;;;;1.77;1.30;;;13.40;82.50;;;;;;5092724;28;20650;-75
2023/04/22 03:17:53;;;;;;;1.93;1.37;;;13.40;82.40;;;;;;5089491;28;20221;-75
2023/04/22 03:20:22;;;;;;;3.50;1.63;;;13.40;82.40;;;;;;5088138;28;20208;-76
2023/04/22 03:22:50;;;;;;;3.97;2.30;;;13.40;82.70;;;;;;5087476;28;20239;-75
2023/04/22 03:25:20;;;;;;;5.90;2.80;;;13.30;83.20;;;;;;5086679;28;20721;-76
2023/04/22 03:27:48;;;;;;;4.90;2.30;;;13.30;83.40;;;;;;5086390;28;20191;-75
2023/04/22 03:30:17;;;;;;;2.60;1.27;;;13.30;83.80;;;;;;5087684;28;20262;-75
2023/04/22 03:32:45;;;;;;;4.33;2.37;;;13.30;83.50;;;;;;5088295;28;20735;-75
2023/04/22 03:35:13;;;;;;;1.87;1.60;;;13.30;83.70;;;;;;5081157;28;20639;-75
2023/04/22 03:37:42;;;;;;;7.27;2.57;;;13.30;83.80;;;;;;5089208;28;20201;-75
2023/04/22 03:40:11;;;;;;;1.87;1.53;;;13.30;83.80;;;;;;5088201;28;20614;-76
2023/04/22 03:42:42;;;;;;;5.17;1.83;;;13.20;84.80;;;;;;5084256;28;20196;-75
2023/04/22 03:45:11;;;;;;;3.17;2.10;;;13.20;84.40;;;;;;5088283;28;20202;-75
2023/04/22 03:47:39;;;;;;;3.33;2.10;;;13.20;84.30;;;;;;5083296;28;20185;-75
2023/04/22 03:50:08;;;;;;;1.53;1.20;;;13.20;84.10;;;;;;5086809;28;20192;-76
2023/04/22 03:52:37;;;;;;;6.27;1.73;;;13.20;84.00;;;;;;5083444;28;20544;-75
2023/04/22 03:55:06;;;;;;;5.33;2.03;;;13.20;83.80;;;;;;5086246;28;20193;-76
2023/04/22 03:57:34;;;;;;;6.70;2.43;;;13.20;84.60;;;;;;5082707;28;20190;-76
2023/04/22 04:00:05;;;;;;;7.20;2.57;;;13.20;84.40;;;;;;5086234;28;20236;-75
2023/04/22 04:02:33;;;;;;;2.97;1.53;;;13.20;84.60;;;;;;5091726;28;20201;-75
2023/04/22 04:05:02;;;;;;;6.17;3.10;;;13.20;84.30;;;;;;5091357;28;20265;-76
2023/04/22 04:07:31;;;;;;;3.27;1.90;;;13.20;84.40;;;;;;5083056;28;20201;-75
2023/04/22 04:09:59;;;;;;;3.20;2.23;;;13.20;84.30;;;;;;5084950;28;20231;-76
2023/04/22 04:12:27;;;;;;;7.30;2.73;;;13.30;84.40;;;;;;5088591;28;20255;-75
2023/04/22 04:14:56;;;;;;;3.57;2.30;;;13.30;84.50;;;;;;5091267;28;20186;-76
2023/04/22 04:17:27;;;;;;;2.03;1.60;;;13.20;84.60;;;;;;5087757;28;20233;-76
2023/04/22 04:19:56;;;;;;;3.33;1.93;;;13.30;84.60;;;;;;5087276;28;20243;-76
2023/04/22 04:22:24;;;;;;;8.83;1.70;;;13.30;84.40;;;;;;5086248;28;20185;-76
2023/04/22 04:24:54;;;;;;;6.23;1.73;;;13.30;84.50;;;;;;5090367;28;20247;-76
2023/04/22 04:27:23;;;;;;;2.70;2.03;;;13.40;84.70;;;;;;5088839;28;20194;-76
2023/04/22 04:29:51;;;;;;;3.17;1.83;;;13.40;84.70;;;;;;5089987;28;20182;-76
2023/04/22 04:32:20;;;;;;;4.20;1.90;;;13.50;84.80;;;;;;5085927;28;20270;-77
2023/04/22 04:34:51;;;;;;;2.90;1.60;;;13.50;84.80;;;;;;5082671;28;20192;-75
2023/04/22 04:37:21;;;;;;;3.50;2.13;;;13.60;84.90;;;;;;5082083;28;20200;-76
2023/04/22 04:39:49;;;;;;;5.27;2.17;;;13.60;84.90;;;;;;5090121;28;20189;-76
2023/04/22 04:42:18;;;;;;;3.77;1.43;;;13.60;84.90;;;;;;5082343;28;20607;-76
2023/04/22 04:44:47;;;;;;;3.73;2.17;;;13.70;85.00;;;;;;5090041;28;20646;-75
2023/04/22 04:47:15;;;;;;;5.67;2.73;;;13.70;85.00;;;;;;5085817;28;20201;-76
2023/04/22 04:49:44;;;;;;;4.70;2.30;;;13.70;85.10;;;;;;5076796;28;20438;-75
2023/04/22 04:52:14;;;;;;;5.47;2.40;;;13.80;85.40;;;;;;5078988;28;20641;-75
2023/04/22 04:54:42;;;;;;;6.87;2.73;;;13.90;86.10;;;;;;5081237;28;20626;-75
2023/04/22 04:57:11;;;;;;;4.00;2.77;;;13.90;85.70;;;;;;5083646;28;20647;-75
2023/04/22 04:59:39;;;;;;;5.40;2.63;;;14.00;85.50;;;;;;5083111;28;20250;-76
2023/04/22 05:02:08;;;;;;;4.67;2.70;;;14.00;85.70;;;;;;5088335;28;20194;-75
2023/04/22 05:04:37;;;;;;;3.93;2.37;;;14.10;85.40;;;;;;5089183;28;20190;-76
2023/04/22 05:07:05;;;;;;;3.17;2.00;;;14.20;85.40;;;;;;5080206;28;20186;-75
2023/04/22 05:09:36;;;;;;;4.30;2.27;;;14.30;85.20;;;;;;5086665;28;20186;-75
2023/04/22 05:12:05;;;;;;;4.87;2.33;;;14.40;85.20;;;;;;5092060;28;20224;-75
2023/04/22 05:14:33;;;;;;;3.33;2.47;;;14.40;85.20;;;;;;5086141;28;20198;-75
2023/04/22 05:17:02;;;;;;;3.50;2.10;;;14.50;85.00;;;;;;5076918;28;20703;-75
2023/04/22 05:19:44;;;;;;;5.17;2.77;;;14.60;84.90;;;;;;5059353;28;20228;-76
2023/04/22 05:22:12;;;;;;;7.30;2.97;;;14.70;84.70;;;;;;5066276;28;20255;-75
2023/04/22 05:24:42;;;;;;;7.57;2.20;;;14.70;84.50;;;;;;5068810;28;20187;-75
2023/04/22 05:27:10;;;;;;;4.90;2.27;;;14.80;84.40;;;;;;5063391;28;20202;-77
2023/04/22 05:29:39;;;;;;;4.27;2.07;;;14.90;84.30;;;;;;5068066;28;20248;-76
2023/04/22 05:32:08;;;;;;;3.37;2.10;;;15.00;84.10;;;;;;5067053;28;20264;-77
2023/04/22 05:34:36;;;;;;;6.17;2.30;;;15.10;83.90;;;;;;5062062;28;20651;-76
2023/04/22 05:37:05;;;;;;;5.20;2.50;;;15.10;83.80;;;;;;5066008;28;20237;-75
2023/04/22 05:39:33;;;;;;;3.97;2.70;;;15.20;83.80;;;;;;5065438;28;20264;-76
2023/04/22 05:42:03;;;;;;;4.53;1.97;;;15.20;83.30;;;;;;5065317;28;20782;-76
2023/04/22 05:44:31;;;;;;;2.40;1.73;;;15.40;83.40;;;;;;5066278;28;20647;-76
2023/04/22 05:47:00;;;;;;;5.37;2.23;;;15.50;83.20;;;;;;5066371;28;20194;-75
2023/04/22 05:49:28;;;;;;;3.47;1.97;;;15.50;83.00;;;;;;5066046;28;20195;-75
2023/04/22 05:51:56;;;;;;;3.63;2.43;;;15.60;82.70;;;;;;5070332;28;20226;-76
2023/04/22 05:54:25;;;;;;;8.67;2.70;;;15.70;82.20;;;;;;5064602;28;20198;-76
2023/04/22 05:56:53;;;;;;;6.70;2.63;;;15.70;81.80;;;;;;5070722;28;20224;-76
2023/04/22 05:59:23;;;;;;;8.03;1.57;;;15.80;81.40;;;;;;5071146;28;20243;-76
2023/04/22 06:01:51;;;;;;;6.63;3.13;;;16.00;81.10;;;;;;5071065;28;20202;-76
2023/04/22 06:04:20;;;;;;;5.77;1.50;;;16.10;80.90;;;;;;5066999;28;20191;-76
2023/04/22 06:06:49;;;;;;;4.13;1.70;;;16.20;79.60;;;;;;5068834;28;20558;-77
2023/04/22 06:09:18;;;;;;;5.03;1.70;;;16.40;79.20;;;;;;5070016;28;20724;-76
2023/04/22 06:11:46;;;;;;;4.83;1.73;;;16.50;77.50;;;;;;5064116;28;20648;-76
2023/04/22 06:14:15;;;;;;;10.80;2.47;;;16.60;75.50;;;;;;5070424;28;20190;-76
2023/04/22 06:16:44;;;;;;;3.60;1.90;;;16.70;76.20;;;;;;5068866;28;20214;-76
2023/04/22 06:19:13;;;;;;;6.37;2.10;;;16.80;75.20;;;;;;5066801;28;20225;-76
2023/04/22 06:21:42;;;;;;;4.00;1.80;;;16.90;76.00;;;;;;5066056;28;20201;-77
2023/04/22 06:24:10;;;;;;;6.23;2.80;;;17.00;75.80;;;;;;5068367;28;20194;-75
2023/04/22 06:26:38;;;;;;;3.83;1.63;;;17.10;75.90;;;;;;5069483;28;20202;-76
2023/04/22 06:29:07;;;;;;;2.07;1.57;;;17.20;75.90;;;;;;5073154;28;20240;-76
2023/04/22 06:31:35;;;;;;;2.97;1.10;;;17.30;76.00;;;;;;5073180;28;20247;-75
2023/04/22 06:34:05;;;;;;;2.23;1.40;;;17.40;76.20;;;;;;5065777;28;20245;-75
2023/04/22 06:36:36;;;;;;;4.30;1.90;;;17.50;75.40;;;;;;5071987;28;20651;-76
2023/04/22 06:39:05;;;;;;;7.43;2.63;;;17.50;74.90;;;;;;5068568;28;20213;-76
2023/04/22 06:41:33;;;;;;;1.97;1.47;;;17.60;74.90;;;;;;5068618;28;20213;-75
2023/04/22 06:44:01;;;;;;;3.30;1.50;;;17.60;74.70;;;;;;5068584;28;20186;-75
2023/04/22 06:46:30;;;;;;;7.63;2.13;;;17.70;73.80;;;;;;5070393;28;20243;-74
2023/04/22 06:48:58;;;;;;;4.57;1.73;;;17.80;73.60;;;;;;5071825;28;20279;-75
2023/04/22 06:51:28;;;;;;;2.17;1.40;;;17.90;72.60;;;;;;5068303;28;20194;-76
2023/04/22 06:53:57;;;;;;;4.83;2.00;;;18.00;72.30;;;;;;5065888;28;20246;-75
2023/04/22 06:56:25;;;;;;;2.73;1.70;;;18.00;70.90;;;;;;5064124;28;20828;-77
2023/04/22 06:58:55;;;;;;;2.60;1.93;;;18.10;70.40;;;;;;5068992;28;20194;-75
2023/04/22 07:01:23;;;;;;;3.53;1.60;;;18.10;69.90;;;;;;5067877;28;20208;-75
2023/04/22 07:03:52;;;;;;;4.53;2.00;;;18.20;68.60;;;;;;5065329;28;20248;-76
2023/04/22 07:06:20;;;;;;;4.83;1.30;;;18.30;67.20;;;;;;5067603;28;20539;-74
2023/04/22 07:08:50;;;;;;;4.70;1.37;;;18.40;66.10;;;;;;5068867;28;20211;-75
2023/04/22 07:11:19;;;;;;;2.73;1.40;;;18.50;65.90;;;;;;5070854;28;20199;-75
2023/04/22 07:13:47;;;;;;;2.97;2.03;;;18.50;64.10;;;;;;5069469;28;20267;-75
2023/04/22 07:16:15;;;;;;;5.17;1.10;;;18.60;64.90;;;;;;5068750;28;20706;-76
2023/04/22 07:18:44;;;;;;;5.03;1.17;;;18.60;63.60;;;;;;5064109;28;20201;-76
2023/04/22 07:21:12;;;;;;;2.57;1.23;;;18.70;61.10;;;;;;5066874;28;20194;-76
2023/04/22 07:23:40;;;;;;;2.37;1.50;;;18.70;60.20;;;;;;5068568;28;20225;-75
2023/04/22 07:26:10;;;;;;;2.40;1.00;;;18.80;60.70;;;;;;5069237;28;20194;-75
2023/04/22 07:28:38;;;;;;;2.13;1.37;;;18.90;61.80;;;;;;5065800;28;20804;-74
2023/04/22 07:31:07;;;;;;;2.93;1.30;;;18.90;61.30;;;;;;5070722;28;20717;-76
2023/04/22 07:33:35;;;;;;;6.50;2.27;;;19.00;61.60;;;;;;5068358;28;20222;-74
2023/04/22 07:36:04;;;;;;;2.80;1.47;;;19.00;61.20;;;;;;5068461;28;20210;-76
2023/04/22 07:38:32;;;;;;;3.60;1.40;;;19.10;59.40;;;;;;5067221;28;20264;-74
2023/04/22 07:41:00;;;;;;;3.23;1.10;;;19.10;57.90;;;;;;5072091;28;20194;-75
2023/04/22 07:43:30;;;;;;;5.47;1.10;;;19.20;58.50;;;;;;5069330;28;20194;-75
2023/04/22 07:45:59;;;;;;;1.07;0.90;;;19.20;57.90;;;;;;5066891;28;20190;-74
2023/04/22 07:48:27;;;;;;;1.87;1.03;;;19.30;58.70;;;;;;5071767;28;20201;-75
2023/04/22 07:50:56;;;;;;;1.23;0.90;;;19.30;57.20;;;;;;5063473;28;20564;-75
2023/04/22 07:53:24;;;;;;;2.45;0.85;;;19.30;56.70;;;;;;5068321;28;20701;-75
2023/04/22 07:55:53;;;;;;;5.03;1.17;;;19.30;57.50;;;;;;5068199;28;20647;-76
2023/04/22 07:58:31;;;;;;;1.87;1.27;;;19.30;54.60;;;;;;5061528;28;20190;-76
2023/04/22 08:01:00;;;;;;;0.67;0.67;;;19.40;55.90;;;;;;5066892;28;20194;-76
2023/04/22 08:03:28;;;;;;;2.97;1.03;;;19.40;54.80;;;;;;5062186;28;20731;-76
2023/04/22 08:05:57;;;;;;;1.40;1.00;;;19.40;55.90;;;;;;5060711;28;20194;-76
2023/04/22 08:08:27;;;;;;;3.53;1.20;;;19.50;57.20;;;;;;5069310;28;20202;-74
2023/04/22 08:10:55;;;;;;;3.70;0.93;;;19.50;56.50;;;;;;5065173;28;20182;-75
2023/04/22 08:13:23;;;;;;;1.37;1.10;;;19.50;56.20;;;;;;5060668;28;20222;-75
2023/04/22 08:15:56;;;;;;;0.77;0.60;;;19.50;55.20;;;;;;5066716;28;20612;-75
2023/04/22 08:18:24;;;;;;;4.57;1.17;;;19.50;55.60;;;;;;5062839;28;20201;-74
2023/04/22 08:20:53;;;;;;;3.33;1.73;;;19.50;54.80;;;;;;5063107;28;20195;-74
2023/04/22 08:23:21;;;;;;;3.22;1.17;;;19.60;54.90;;;;;;5067789;28;20195;-75
2023/04/22 08:25:50;;;;;;;1.13;0.67;;;19.60;55.20;;;;;;5064243;28;20220;-75
2023/04/22 08:28:19;;;;;;;4.13;1.00;;;19.60;56.20;;;;;;5064972;28;20585;-74
2023/04/22 08:30:47;;;;;;;9.60;1.80;;;19.70;55.30;;;;;;5070573;28;20205;-74
2023/04/22 08:33:17;;;;;;;2.83;0.83;;;19.70;55.30;;;;;;5067001;28;20630;-74
2023/04/22 08:35:45;;;;;;;1.37;0.80;;;19.70;55.70;;;;;;5059910;28;20643;-74
2023/04/22 08:38:14;;;;;;;1.38;0.82;;;19.80;55.50;;;;;;5062247;28;20195;-74
2023/04/22 08:40:42;;;;;;;3.13;0.82;;;19.80;54.80;;;;;;5067356;28;20276;-74
2023/04/22 08:43:12;;;;;;;5.40;1.63;;;19.80;54.80;;;;;;5065760;28;20247;-75
2023/04/22 08:45:41;;;;;;;2.03;0.77;;;19.80;55.00;;;;;;5063714;28;20256;-75
2023/04/22 08:48:10;;;;;;;1.00;0.80;;;19.90;55.50;;;;;;5068135;28;20696;-75
2023/04/22 08:50:39;;;;;;;2.47;1.13;;;19.90;55.00;;;;;;5068433;28;20591;-75
2023/04/22 08:53:08;;;;;;;2.20;1.10;;;19.90;55.10;;;;;;5069392;28;20194;-75
2023/04/22 08:55:36;;;;;;;3.15;1.00;;;20.00;55.00;;;;;;5069136;28;20606;-74
2023/04/22 08:58:05;;;;;;;4.57;1.30;;;20.00;54.40;;;;;;5067554;28;20190;-74
2023/04/22 09:00:34;;;;;;;1.25;0.82;;;20.00;52.50;;;;;;5063498;28;20596;-75
2023/04/22 09:03:05;;;;;;;3.85;0.95;;;20.10;54.20;;;;;;5061096;28;20662;-74
2023/04/22 09:05:36;;;;;;;3.28;1.00;;;20.10;53.60;;;;;;5062197;28;20652;-76
2023/04/22 09:08:07;;;;;;;1.67;1.20;;;20.20;54.20;;;;;;5065419;28;20183;-76
2023/04/22 09:10:37;;;;;;;1.02;0.77;;;20.20;54.00;;;;;;5064196;28;20229;-76
2023/04/22 09:13:07;;;;;;;5.65;1.63;;;20.20;53.70;;;;;;5065592;28;20190;-76
2023/04/22 09:15:45;;;;;;;4.22;1.23;;;20.30;54.10;;;;;;5067708;28;20218;-76
2023/04/22 09:18:17;;;;;;;2.80;0.98;;;20.30;53.20;;;;;;5066404;28;20226;-77
2023/04/22 09:20:47;;;;;;;9.13;1.52;;;20.40;53.00;;;;;;5067157;28;20329;-75
2023/04/22 09:23:23;;;;;;;1.33;0.82;;;20.40;53.10;;;;;;5056927;28;20187;-77
2023/04/22 09:25:52;;;;;;;1.02;0.82;;;20.50;53.10;;;;;;5066230;28;20190;-75
2023/04/22 09:28:20;;;;;;;3.58;1.02;;;20.50;53.60;;;;;;5067228;28;20694;-76
2023/04/22 09:30:48;;;;;;;3.70;1.10;;;20.60;54.00;;;;;;5071069;28;20246;-77
2023/04/22 09:33:17;;;;;;;1.55;1.00;;;20.60;53.10;;;;;;5070958;28;20203;-77
2023/04/22 09:35:45;;;;;;;7.60;1.75;;;20.60;53.20;;;;;;5072795;28;20221;-78
2023/04/22 09:38:13;;;;;;;1.77;1.00;;;20.60;53.50;;;;;;5070684;28;20199;-76
2023/04/22 09:40:44;;;;;;;1.38;0.98;;;20.70;52.50;;;;;;5071259;28;20272;-75
2023/04/22 09:43:12;;;;;;;6.18;0.90;;;20.70;53.40;;;;;;5067797;28;20266;-75
2023/04/22 09:45:42;;;;;;;3.00;1.17;;;20.70;53.10;;;;;;5072063;28;20267;-80
2023/04/22 09:48:13;;;;;;;0.85;0.70;;;20.80;53.10;;;;;;5069719;28;20199;-76
2023/04/22 09:50:45;;;;;;;3.00;1.25;;;20.80;53.00;;;;;;5068160;28;20195;-76
2023/04/22 09:53:16;;;;;;;3.65;0.80;;;20.80;53.40;;;;;;5067261;28;20197;-76
2023/04/22 09:55:54;;;;;;;2.83;1.60;;;20.90;52.80;;;;;;5069444;28;20205;-76
2023/04/22 09:58:24;;;;;;;1.75;1.00;;;20.80;52.70;;;;;;5066655;28;20194;-75
2023/04/22 10:00:55;;;;;;;2.03;1.50;;;20.90;53.30;;;;;;5070862;28;20247;-75
2023/04/22 10:03:24;;;;;;;2.97;1.13;;;20.90;52.80;;;;;;5069534;28;20193;-76
2023/04/22 10:05:54;;;;;;;4.72;1.25;;;20.90;51.80;;;;;;5070548;28;20194;-77
2023/04/22 10:08:22;;;;;;;2.42;1.42;;;20.90;51.90;;;;;;5064411;28;20608;-75
2023/04/22 10:10:53;;;;;;;1.73;0.90;;;21.00;52.60;;;;;;5066853;28;20713;-75
2023/04/22 10:13:21;;;;;;;6.03;0.93;;;21.00;52.70;;;;;;5073899;28;20256;-74
2023/04/22 10:15:56;;;;;;;3.28;1.10;;;21.00;52.90;;;;;;5069394;28;20229;-77
2023/04/22 10:18:28;;;;;;;2.83;1.25;;;21.00;52.40;;;;;;5059142;28;20223;-77
2023/04/22 10:20:59;;;;;;;2.00;1.00;;;21.10;52.60;;;;;;5066306;28;20233;-75
2023/04/22 10:23:32;;;;;;;1.77;1.00;;;21.20;52.60;;;;;;5068128;28;20191;-74
2023/04/22 10:26:05;;;;;;;3.60;1.05;;;21.20;51.90;;;;;;5072377;28;20549;-77
2023/04/22 10:28:34;;;;;;;3.42;1.02;;;21.20;51.30;;;;;;5070931;28;20790;-77
2023/04/22 10:31:06;;;;;;;2.35;0.85;;;21.20;52.00;;;;;;5068744;28;21299;-75
2023/04/22 10:33:39;;;;;;;2.35;1.13;;;21.30;52.50;;;;;;5071513;28;20201;-76
2023/04/22 10:36:09;;;;;;;1.35;1.05;;;21.40;52.30;;;;;;5066619;28;20271;-76
2023/04/22 10:38:39;;;;;;;3.17;0.95;;;21.40;52.40;;;;;;5064160;28;20297;-75
2023/04/22 10:41:14;;;;;;;2.30;1.55;;;21.40;51.70;;;;;;5070551;28;20190;-76
2023/04/22 10:43:44;;;;;;;1.85;1.05;;;21.50;52.00;;;;;;5069622;28;20186;-74
2023/04/22 10:46:49;;;;;;;1.42;0.80;;;21.60;51.80;;;;;;5072202;28;20195;-75
2023/04/22 10:49:20;;;;;;;4.80;1.05;;;21.60;51.00;;;;;;5070463;28;20213;-75
2023/04/22 10:51:50;;;;;;;3.10;1.40;;;21.70;51.30;;;;;;5070633;28;20191;-76
2023/04/22 10:55:01;;;;;;;1.05;0.80;;;21.70;51.00;;;;;;5068885;28;20252;-77
2023/04/22 10:57:42;;;;;;;1.38;0.73;;;21.70;50.00;;;;;;5060720;28;20202;-76
2023/04/22 11:00:25;;;;;;;0.65;0.60;;;21.80;50.80;;;;;;5069372;28;22285;-76
2023/04/22 11:03:10;;;;;;;0.93;0.82;;;21.90;50.70;;;;;;5063688;28;20191;-76
2023/04/22 11:05:39;;;;;;;1.77;1.05;;;21.90;50.70;;;;;;5066817;28;20195;-75
2023/04/22 11:08:13;;;;;;;2.75;1.05;;;21.90;49.20;;;;;;5066346;28;20560;-77
2023/04/22 11:10:43;;;;;;;2.00;0.70;;;21.80;49.80;;;;;;5063404;28;20191;-75
2023/04/22 11:13:15;;;;;;;2.22;1.17;;;21.80;49.30;;;;;;5066309;28;20204;-75
2023/04/22 11:15:45;;;;;;;1.75;0.98;;;21.80;49.70;;;;;;5066108;28;20217;-76
2023/04/22 11:18:20;;;;;;;1.73;0.93;;;21.80;48.90;;;;;;5067874;28;20643;-76
2023/04/22 11:20:49;;;;;;;2.85;1.05;;;21.90;48.90;;;;;;5068007;28;20194;-76
2023/04/22 11:23:20;;;;;;;1.85;1.00;;;22.00;49.70;;;;;;5068508;28;20202;-75
2023/04/22 11:25:53;;;;;;;2.22;0.95;;;22.00;50.20;;;;;;5064930;28;20190;-76
2023/04/22 11:28:23;;;;;;;1.15;0.80;;;22.00;50.30;;;;;;5062778;28;20194;-76
2023/04/22 11:30:52;;;;;;;2.67;1.60;;;22.10;50.20;;;;;;5068252;28;20663;-75
2023/04/22 11:33:20;;;;;;;4.53;1.88;;;22.10;49.80;;;;;;5065332;28;20194;-76
2023/04/22 11:35:50;;;;;;;1.85;1.17;;;22.20;49.40;;;;;;5066063;28;20280;-76
2023/04/22 11:38:19;;;;;;;2.50;1.33;;;22.20;49.50;;;;;;5061657;28;20190;-76
2023/04/22 11:40:47;;;;;;;1.70;0.88;;;22.30;50.20;;;;;;5057075;28;20251;-76
2023/04/22 11:43:17;;;;;;;1.95;1.02;;;22.30;49.30;;;;;;5067044;28;20685;-76
2023/04/22 11:45:47;;;;;;;3.42;0.90;;;22.30;49.10;;;;;;5061675;28;20231;-75
2023/04/22 11:48:16;;;;;;;2.42;1.20;;;22.30;49.20;;;;;;5063697;28;20203;-76
2023/04/22 11:50:44;;;;;;;0.88;0.60;;;22.30;49.60;;;;;;5061018;28;20199;-75
2023/04/22 11:53:18;;;;;;;1.70;1.20;;;22.30;49.80;;;;;;5070074;28;20686;-76
2023/04/22 11:55:49;;;;;;;1.38;1.08;;;22.30;50.10;;;;;;5064104;28;20199;-76
2023/04/22 11:58:19;;;;;;;8.57;3.83;;;22.30;50.50;;;;;;5059117;28;20195;-75
2023/04/22 12:00:52;;;;;;;7.57;4.93;;;22.30;50.80;;;;;;5058367;28;20243;-75
2023/04/22 12:03:22;;;;;;;5.22;3.72;;;22.20;50.00;;;;;;5067547;28;20256;-76
2023/04/22 12:05:53;;;;;;;2.40;1.48;;;22.30;50.90;;;;;;5065021;28;20607;-74
2023/04/22 12:08:23;;;;;;;4.68;2.30;;;22.40;51.00;;;;;;5062260;28;20198;-76
2023/04/22 12:10:53;;;;;;;3.38;1.20;;;22.50;51.00;;;;;;5065240;28;20217;-75
2023/04/22 12:13:22;;;;;;;3.42;1.50;;;22.50;50.20;;;;;;5067366;28;20694;-81
2023/04/22 12:15:55;;;;;;;3.60;1.88;;;22.60;50.50;;;;;;5066948;28;20683;-75
2023/04/22 12:18:30;;;;;;;1.58;1.05;;;22.70;50.80;;;;;;5060318;28;20230;-76
2023/04/22 12:21:08;;;;;;;9.48;2.72;;;22.80;50.90;;;;;;5061426;28;20611;-76
2023/04/22 12:23:44;;;;;;;2.42;1.02;;;22.80;51.00;;;;;;5067183;28;20190;-75
2023/04/22 12:26:13;;;;;;;5.50;1.95;;;22.80;50.70;;;;;;5068185;28;20572;-75
2023/04/22 12:28:42;;;;;;;2.42;1.02;;;22.80;50.40;;;;;;5069521;28;20239;-75
2023/04/22 12:31:13;;;;;;;4.97;1.20;;;22.90;50.80;;;;;;5068938;28;20187;-75
2023/04/22 12:33:43;;;;;;;2.67;0.90;;;22.90;50.60;;;;;;5067202;28;20279;-75
2023/04/22 12:36:12;;;;;;;2.58;1.02;;;22.90;50.20;;;;;;5063534;28;20316;-75
2023/04/22 12:38:40;;;;;;;2.22;0.95;;;22.80;49.80;;;;;;5065080;28;20264;-75
2023/04/22 12:41:09;;;;;;;3.50;1.10;;;22.80;49.80;;;;;;5070255;28;20195;-75
2023/04/22 12:43:38;;;;;;;1.85;0.98;;;22.80;49.90;;;;;;5066315;28;20198;-75
2023/04/22 12:46:07;;;;;;;1.45;0.88;;;22.80;50.20;;;;;;5071430;28;20239;-75
2023/04/22 12:48:37;;;;;;;9.13;1.33;;;22.80;50.40;;;;;;5067308;28;20194;-75
2023/04/22 12:51:06;;;;;;;2.28;1.00;;;22.80;50.20;;;;;;5068732;28;20202;-75
2023/04/22 12:53:34;;;;;;;2.33;0.98;;;22.80;50.00;;;;;;5070293;28;20712;-75
2023/04/22 12:56:03;;;;;;;2.55;1.10;;;22.80;50.00;;;;;;5066261;28;20222;-75
2023/04/22 12:58:31;;;;;;;6.20;1.42;;;22.70;50.20;;;;;;5068836;28;20679;-76
2023/04/22 13:01:00;;;;;;;1.95;1.20;;;22.60;50.30;;;;;;5070955;28;20187;-76